sensor_id;sensor_type;location;lat;lon;timestamp;temperature;humidity
83405;SHT30;73331;48.168;20.776;2023-12-28T00:00:47;4.64;75.62
83405;SHT30;73331;48.168;20.776;2023-12-28T00:02:18;4.29;76.89
83405;SHT30;73331;48.168;20.776;2023-12-28T00:03:49;4.35;76.98
83405;SHT30;73331;48.168;20.776;2023-12-28T00:05:20;4.22;77.57
83405;SHT30;73331;48.168;20.776;2023-12-28T00:06:50;4.33;77.37
83405;SHT30;73331;48.168;20.776;2023-12-28T00:08:21;4.60;76.03
83405;SHT30;73331;48.168;20.776;2023-12-28T00:09:51;4.43;76.85
83405;SHT30;73331;48.168;20.776;2023-12-28T00:11:21;4.36;77.29
83405;SHT30;73331;48.168;20.776;2023-12-28T00:12:54;4.08;78.05
83405;SHT30;73331;48.168;20.776;2023-12-28T00:14:24;3.91;78.83
83405;SHT30;73331;48.168;20.776;2023-12-28T00:15:55;4.06;78.54
83405;SHT30;73331;48.168;20.776;2023-12-28T00:17:25;4.13;78.27
83405;SHT30;73331;48.168;20.776;2023-12-28T00:18:56;4.36;77.66
83405;SHT30;73331;48.168;20.776;2023-12-28T00:20:26;4.52;77.08
83405;SHT30;73331;48.168;20.776;2023-12-28T00:21:57;4.35;77.77
83405;SHT30;73331;48.168;20.776;2023-12-28T00:23:27;4.63;76.67
83405;SHT30;73331;48.168;20.776;2023-12-28T00:24:58;4.56;76.67
83405;SHT30;73331;48.168;20.776;2023-12-28T00:26:28;4.50;76.90
83405;SHT30;73331;48.168;20.776;2023-12-28T00:27:59;4.63;76.47
83405;SHT30;73331;48.168;20.776;2023-12-28T00:29:29;4.42;76.71
83405;SHT30;73331;48.168;20.776;2023-12-28T00:31:00;4.16;77.83
83405;SHT30;73331;48.168;20.776;2023-12-28T00:32:30;4.05;78.48
83405;SHT30;73331;48.168;20.776;2023-12-28T00:34:01;4.16;78.60
83405;SHT30;73331;48.168;20.776;2023-12-28T00:35:31;4.12;78.47
83405;SHT30;73331;48.168;20.776;2023-12-28T00:37:02;4.01;78.67
83405;SHT30;73331;48.168;20.776;2023-12-28T00:38:33;3.95;79.14
83405;SHT30;73331;48.168;20.776;2023-12-28T00:40:03;4.12;78.73
83405;SHT30;73331;48.168;20.776;2023-12-28T00:41:34;4.36;77.85
83405;SHT30;73331;48.168;20.776;2023-12-28T00:43:05;4.62;76.99
83405;SHT30;73331;48.168;20.776;2023-12-28T00:44:35;4.70;76.63
83405;SHT30;73331;48.168;20.776;2023-12-28T00:46:05;4.79;76.17
83405;SHT30;73331;48.168;20.776;2023-12-28T00:47:36;4.63;76.87
83405;SHT30;73331;48.168;20.776;2023-12-28T00:49:06;4.63;76.84
83405;SHT30;73331;48.168;20.776;2023-12-28T00:50:38;4.50;77.03
83405;SHT30;73331;48.168;20.776;2023-12-28T00:52:08;4.38;77.19
83405;SHT30;73331;48.168;20.776;2023-12-28T00:53:39;4.48;77.24
83405;SHT30;73331;48.168;20.776;2023-12-28T00:55:10;4.76;76.50
83405;SHT30;73331;48.168;20.776;2023-12-28T00:56:41;4.98;75.63
83405;SHT30;73331;48.168;20.776;2023-12-28T00:58:11;5.05;75.56
83405;SHT30;73331;48.168;20.776;2023-12-28T00:59:42;5.47;73.93
83405;SHT30;73331;48.168;20.776;2023-12-28T01:01:13;5.76;73.01
83405;SHT30;73331;48.168;20.776;2023-12-28T01:02:44;5.85;72.91
83405;SHT30;73331;48.168;20.776;2023-12-28T01:04:17;5.93;73.57
83405;SHT30;73331;48.168;20.776;2023-12-28T01:05:48;5.96;73.54
83405;SHT30;73331;48.168;20.776;2023-12-28T01:07:20;5.88;73.79
83405;SHT30;73331;48.168;20.776;2023-12-28T01:08:51;5.55;74.54
83405;SHT30;73331;48.168;20.776;2023-12-28T01:10:21;5.31;75.80
83405;SHT30;73331;48.168;20.776;2023-12-28T01:11:52;5.05;76.50
83405;SHT30;73331;48.168;20.776;2023-12-28T01:13:22;5.10;76.39
83405;SHT30;73331;48.168;20.776;2023-12-28T01:14:53;5.27;75.41
83405;SHT30;73331;48.168;20.776;2023-12-28T01:16:23;5.11;75.68
83405;SHT30;73331;48.168;20.776;2023-12-28T01:17:54;4.70;77.32
83405;SHT30;73331;48.168;20.776;2023-12-28T01:19:24;4.18;79.75
83405;SHT30;73331;48.168;20.776;2023-12-28T01:20:55;3.91;80.77
83405;SHT30;73331;48.168;20.776;2023-12-28T01:22:25;3.75;81.62
83405;SHT30;73331;48.168;20.776;2023-12-28T01:23:56;3.82;81.74
83405;SHT30;73331;48.168;20.776;2023-12-28T01:25:26;3.89;81.10
83405;SHT30;73331;48.168;20.776;2023-12-28T01:26:57;3.81;80.89
83405;SHT30;73331;48.168;20.776;2023-12-28T01:28:27;3.85;80.71
83405;SHT30;73331;48.168;20.776;2023-12-28T01:29:58;3.97;80.39
83405;SHT30;73331;48.168;20.776;2023-12-28T01:31:29;3.99;80.08
83405;SHT30;73331;48.168;20.776;2023-12-28T01:32:59;4.05;80.20
83405;SHT30;73331;48.168;20.776;2023-12-28T01:34:30;4.12;80.07
83405;SHT30;73331;48.168;20.776;2023-12-28T01:36:01;4.10;79.77
83405;SHT30;73331;48.168;20.776;2023-12-28T01:37:32;4.12;79.93
83405;SHT30;73331;48.168;20.776;2023-12-28T01:39:03;4.33;79.65
83405;SHT30;73331;48.168;20.776;2023-12-28T01:40:34;4.40;78.93
83405;SHT30;73331;48.168;20.776;2023-12-28T01:42:04;4.38;79.27
83405;SHT30;73331;48.168;20.776;2023-12-28T01:43:35;4.52;78.93
83405;SHT30;73331;48.168;20.776;2023-12-28T01:45:06;4.70;78.53
83405;SHT30;73331;48.168;20.776;2023-12-28T01:46:37;5.14;76.75
83405;SHT30;73331;48.168;20.776;2023-12-28T01:48:08;5.15;76.59
83405;SHT30;73331;48.168;20.776;2023-12-28T01:49:39;5.08;76.93
83405;SHT30;73331;48.168;20.776;2023-12-28T01:51:11;4.84;78.11
83405;SHT30;73331;48.168;20.776;2023-12-28T01:52:42;4.87;78.14
83405;SHT30;73331;48.168;20.776;2023-12-28T01:54:13;5.17;76.96
83405;SHT30;73331;48.168;20.776;2023-12-28T01:55:44;4.97;77.69
83405;SHT30;73331;48.168;20.776;2023-12-28T01:57:15;4.66;78.45
83405;SHT30;73331;48.168;20.776;2023-12-28T01:58:48;4.46;79.26
83405;SHT30;73331;48.168;20.776;2023-12-28T02:00:21;4.46;79.55
83405;SHT30;73331;48.168;20.776;2023-12-28T02:01:52;4.49;79.53
83405;SHT30;73331;48.168;20.776;2023-12-28T02:03:22;4.40;79.66
83405;SHT30;73331;48.168;20.776;2023-12-28T02:04:53;4.42;79.62
83405;SHT30;73331;48.168;20.776;2023-12-28T02:06:24;4.42;79.73
83405;SHT30;73331;48.168;20.776;2023-12-28T02:07:55;4.52;79.58
83405;SHT30;73331;48.168;20.776;2023-12-28T02:09:25;4.53;79.53
83405;SHT30;73331;48.168;20.776;2023-12-28T02:10:56;4.59;79.52
83405;SHT30;73331;48.168;20.776;2023-12-28T02:12:26;4.74;79.32
83405;SHT30;73331;48.168;20.776;2023-12-28T02:13:57;4.77;78.75
83405;SHT30;73331;48.168;20.776;2023-12-28T02:15:28;4.67;79.09
83405;SHT30;73331;48.168;20.776;2023-12-28T02:17:06;4.64;79.42
83405;SHT30;73331;48.168;20.776;2023-12-28T02:18:44;4.59;79.47
83405;SHT30;73331;48.168;20.776;2023-12-28T02:20:19;4.64;79.24
83405;SHT30;73331;48.168;20.776;2023-12-28T02:21:51;4.73;78.80
83405;SHT30;73331;48.168;20.776;2023-12-28T02:23:22;4.70;79.10
83405;SHT30;73331;48.168;20.776;2023-12-28T02:25:08;4.64;79.69
83405;SHT30;73331;48.168;20.776;2023-12-28T02:26:39;4.81;79.30
83405;SHT30;73331;48.168;20.776;2023-12-28T02:28:09;5.03;78.82
83405;SHT30;73331;48.168;20.776;2023-12-28T02:29:40;5.15;78.12
83405;SHT30;73331;48.168;20.776;2023-12-28T02:31:21;5.38;76.99
83405;SHT30;73331;48.168;20.776;2023-12-28T02:34:34;5.49;76.79
83405;SHT30;73331;48.168;20.776;2023-12-28T02:36:10;5.27;77.51
83405;SHT30;73331;48.168;20.776;2023-12-28T02:37:42;5.07;78.11
83405;SHT30;73331;48.168;20.776;2023-12-28T02:39:15;4.83;79.01
83405;SHT30;73331;48.168;20.776;2023-12-28T02:40:47;4.81;79.07
83405;SHT30;73331;48.168;20.776;2023-12-28T02:42:18;4.76;79.38
83405;SHT30;73331;48.168;20.776;2023-12-28T02:43:49;4.76;79.42
83405;SHT30;73331;48.168;20.776;2023-12-28T02:45:19;4.88;79.08
83405;SHT30;73331;48.168;20.776;2023-12-28T02:46:50;4.81;79.03
83405;SHT30;73331;48.168;20.776;2023-12-28T02:48:20;4.69;79.52
83405;SHT30;73331;48.168;20.776;2023-12-28T02:49:51;4.66;79.58
83405;SHT30;73331;48.168;20.776;2023-12-28T02:51:21;4.53;80.20
83405;SHT30;73331;48.168;20.776;2023-12-28T02:52:52;4.91;79.22
83405;SHT30;73331;48.168;20.776;2023-12-28T02:54:23;5.10;78.13
83405;SHT30;73331;48.168;20.776;2023-12-28T02:55:53;4.79;79.26
83405;SHT30;73331;48.168;20.776;2023-12-28T02:57:23;5.07;78.62
83405;SHT30;73331;48.168;20.776;2023-12-28T02:58:54;5.30;78.01
83405;SHT30;73331;48.168;20.776;2023-12-28T03:00:25;5.47;77.44
83405;SHT30;73331;48.168;20.776;2023-12-28T03:01:55;5.31;77.79
83405;SHT30;73331;48.168;20.776;2023-12-28T03:03:26;5.01;79.42
83405;SHT30;73331;48.168;20.776;2023-12-28T03:04:56;5.05;79.56
83405;SHT30;73331;48.168;20.776;2023-12-28T03:06:27;4.94;79.96
83405;SHT30;73331;48.168;20.776;2023-12-28T03:07:57;4.85;79.98
83405;SHT30;73331;48.168;20.776;2023-12-28T03:09:28;4.62;80.83
83405;SHT30;73331;48.168;20.776;2023-12-28T03:10:59;4.72;81.11
83405;SHT30;73331;48.168;20.776;2023-12-28T03:12:30;4.76;81.05
83405;SHT30;73331;48.168;20.776;2023-12-28T03:14:00;4.76;80.92
83405;SHT30;73331;48.168;20.776;2023-12-28T03:15:33;4.64;81.33
83405;SHT30;73331;48.168;20.776;2023-12-28T03:17:03;4.60;81.45
83405;SHT30;73331;48.168;20.776;2023-12-28T03:18:34;4.45;81.77
83405;SHT30;73331;48.168;20.776;2023-12-28T03:20:05;4.39;82.04
83405;SHT30;73331;48.168;20.776;2023-12-28T03:21:39;4.36;82.17
83405;SHT30;73331;48.168;20.776;2023-12-28T03:23:11;4.22;82.21
83405;SHT30;73331;48.168;20.776;2023-12-28T03:24:43;4.18;82.47
83405;SHT30;73331;48.168;20.776;2023-12-28T03:26:13;4.12;82.71
83405;SHT30;73331;48.168;20.776;2023-12-28T03:27:44;4.02;82.97
83405;SHT30;73331;48.168;20.776;2023-12-28T03:29:14;3.91;83.03
83405;SHT30;73331;48.168;20.776;2023-12-28T03:30:45;3.92;83.06
83405;SHT30;73331;48.168;20.776;2023-12-28T03:32:16;3.82;83.33
83405;SHT30;73331;48.168;20.776;2023-12-28T03:33:46;3.79;83.73
83405;SHT30;73331;48.168;20.776;2023-12-28T03:35:17;3.87;83.27
83405;SHT30;73331;48.168;20.776;2023-12-28T03:36:47;3.77;83.51
83405;SHT30;73331;48.168;20.776;2023-12-28T03:38:18;3.73;83.86
83405;SHT30;73331;48.168;20.776;2023-12-28T03:39:48;4.02;83.34
83405;SHT30;73331;48.168;20.776;2023-12-28T03:41:19;4.48;82.16
83405;SHT30;73331;48.168;20.776;2023-12-28T03:42:50;4.84;80.47
83405;SHT30;73331;48.168;20.776;2023-12-28T03:44:21;4.76;79.97
83405;SHT30;73331;48.168;20.776;2023-12-28T03:45:52;4.74;80.40
83405;SHT30;73331;48.168;20.776;2023-12-28T03:47:22;4.74;80.25
83405;SHT30;73331;48.168;20.776;2023-12-28T03:48:54;4.88;79.98
83405;SHT30;73331;48.168;20.776;2023-12-28T03:50:24;4.73;79.96
83405;SHT30;73331;48.168;20.776;2023-12-28T03:51:55;4.81;79.69
83405;SHT30;73331;48.168;20.776;2023-12-28T03:53:25;4.72;79.77
83405;SHT30;73331;48.168;20.776;2023-12-28T03:54:56;4.46;80.69
83405;SHT30;73331;48.168;20.776;2023-12-28T03:56:27;4.09;82.22
83405;SHT30;73331;48.168;20.776;2023-12-28T03:57:58;3.78;83.37
83405;SHT30;73331;48.168;20.776;2023-12-28T03:59:29;3.68;84.02
83405;SHT30;73331;48.168;20.776;2023-12-28T04:00:59;4.03;83.14
83405;SHT30;73331;48.168;20.776;2023-12-28T04:02:30;3.87;83.30
83405;SHT30;73331;48.168;20.776;2023-12-28T04:04:02;3.65;84.05
83405;SHT30;73331;48.168;20.776;2023-12-28T04:05:32;3.58;84.75
83405;SHT30;73331;48.168;20.776;2023-12-28T04:07:03;3.65;84.65
83405;SHT30;73331;48.168;20.776;2023-12-28T04:08:37;3.51;84.52
83405;SHT30;73331;48.168;20.776;2023-12-28T04:10:08;3.54;85.37
83405;SHT30;73331;48.168;20.776;2023-12-28T04:11:38;3.73;85.00
83405;SHT30;73331;48.168;20.776;2023-12-28T04:13:09;3.63;84.86
83405;SHT30;73331;48.168;20.776;2023-12-28T04:14:39;3.67;85.15
83405;SHT30;73331;48.168;20.776;2023-12-28T04:16:13;3.70;84.94
83405;SHT30;73331;48.168;20.776;2023-12-28T04:17:44;3.85;84.53
83405;SHT30;73331;48.168;20.776;2023-12-28T04:19:15;3.99;84.20
83405;SHT30;73331;48.168;20.776;2023-12-28T04:20:45;3.97;83.65
83405;SHT30;73331;48.168;20.776;2023-12-28T04:22:16;3.94;84.21
83405;SHT30;73331;48.168;20.776;2023-12-28T04:23:46;4.03;83.95
83405;SHT30;73331;48.168;20.776;2023-12-28T04:25:17;4.05;83.15
83405;SHT30;73331;48.168;20.776;2023-12-28T04:26:47;3.92;83.55
83405;SHT30;73331;48.168;20.776;2023-12-28T04:28:18;4.01;83.56
83405;SHT30;73331;48.168;20.776;2023-12-28T04:29:48;3.88;83.56
83405;SHT30;73331;48.168;20.776;2023-12-28T04:31:19;3.84;83.46
83405;SHT30;73331;48.168;20.776;2023-12-28T04:32:49;3.79;83.66
83405;SHT30;73331;48.168;20.776;2023-12-28T04:34:20;4.03;82.55
83405;SHT30;73331;48.168;20.776;2023-12-28T04:35:50;4.08;82.90
83405;SHT30;73331;48.168;20.776;2023-12-28T04:37:21;4.02;82.87
83405;SHT30;73331;48.168;20.776;2023-12-28T04:38:51;3.95;82.93
83405;SHT30;73331;48.168;20.776;2023-12-28T04:40:22;3.97;82.79
83405;SHT30;73331;48.168;20.776;2023-12-28T04:41:52;3.92;82.62
83405;SHT30;73331;48.168;20.776;2023-12-28T04:43:24;3.71;83.92
83405;SHT30;73331;48.168;20.776;2023-12-28T04:44:54;3.88;83.37
83405;SHT30;73331;48.168;20.776;2023-12-28T04:46:25;3.71;83.87
83405;SHT30;73331;48.168;20.776;2023-12-28T04:47:55;3.60;84.74
83405;SHT30;73331;48.168;20.776;2023-12-28T04:49:26;3.54;84.96
83405;SHT30;73331;48.168;20.776;2023-12-28T04:50:56;3.47;85.32
83405;SHT30;73331;48.168;20.776;2023-12-28T04:52:27;3.44;85.72
83405;SHT30;73331;48.168;20.776;2023-12-28T04:53:57;3.57;85.89
83405;SHT30;73331;48.168;20.776;2023-12-28T04:55:28;3.50;85.68
83405;SHT30;73331;48.168;20.776;2023-12-28T04:56:58;3.43;84.75
83405;SHT30;73331;48.168;20.776;2023-12-28T04:58:29;3.41;84.75
83405;SHT30;73331;48.168;20.776;2023-12-28T05:00:00;3.51;84.62
83405;SHT30;73331;48.168;20.776;2023-12-28T05:01:30;3.60;84.77
83405;SHT30;73331;48.168;20.776;2023-12-28T05:03:03;3.65;84.73
83405;SHT30;73331;48.168;20.776;2023-12-28T05:04:37;3.65;84.89
83405;SHT30;73331;48.168;20.776;2023-12-28T05:06:08;3.55;85.46
83405;SHT30;73331;48.168;20.776;2023-12-28T05:07:39;3.55;85.53
83405;SHT30;73331;48.168;20.776;2023-12-28T05:09:09;3.51;85.60
83405;SHT30;73331;48.168;20.776;2023-12-28T05:10:40;3.44;85.60
83405;SHT30;73331;48.168;20.776;2023-12-28T05:12:10;3.41;86.14
83405;SHT30;73331;48.168;20.776;2023-12-28T05:13:41;3.37;85.49
83405;SHT30;73331;48.168;20.776;2023-12-28T05:15:11;3.20;84.24
83405;SHT30;73331;48.168;20.776;2023-12-28T05:16:42;2.99;84.39
83405;SHT30;73331;48.168;20.776;2023-12-28T05:18:13;2.88;84.95
83405;SHT30;73331;48.168;20.776;2023-12-28T05:19:43;2.83;85.09
83405;SHT30;73331;48.168;20.776;2023-12-28T05:21:14;2.76;85.13
83405;SHT30;73331;48.168;20.776;2023-12-28T05:22:44;2.66;85.39
83405;SHT30;73331;48.168;20.776;2023-12-28T05:24:15;2.52;85.51
83405;SHT30;73331;48.168;20.776;2023-12-28T05:25:45;2.48;85.62
83405;SHT30;73331;48.168;20.776;2023-12-28T05:27:16;2.48;85.71
83405;SHT30;73331;48.168;20.776;2023-12-28T05:28:47;2.61;85.62
83405;SHT30;73331;48.168;20.776;2023-12-28T05:30:17;2.61;85.30
83405;SHT30;73331;48.168;20.776;2023-12-28T05:31:48;2.61;85.09
83405;SHT30;73331;48.168;20.776;2023-12-28T05:33:18;2.72;85.07
83405;SHT30;73331;48.168;20.776;2023-12-28T05:34:49;2.66;85.24
83405;SHT30;73331;48.168;20.776;2023-12-28T05:36:20;2.76;85.21
83405;SHT30;73331;48.168;20.776;2023-12-28T05:37:50;2.62;85.07
83405;SHT30;73331;48.168;20.776;2023-12-28T05:39:21;2.65;85.05
83405;SHT30;73331;48.168;20.776;2023-12-28T05:40:51;2.72;84.80
83405;SHT30;73331;48.168;20.776;2023-12-28T05:42:22;2.78;84.57
83405;SHT30;73331;48.168;20.776;2023-12-28T05:43:52;2.73;84.86
83405;SHT30;73331;48.168;20.776;2023-12-28T05:45:23;2.76;85.09
83405;SHT30;73331;48.168;20.776;2023-12-28T05:46:53;2.91;85.06
83405;SHT30;73331;48.168;20.776;2023-12-28T05:48:24;2.96;84.55
83405;SHT30;73331;48.168;20.776;2023-12-28T05:49:54;3.04;84.88
83405;SHT30;73331;48.168;20.776;2023-12-28T05:51:25;3.04;84.95
83405;SHT30;73331;48.168;20.776;2023-12-28T05:52:55;3.10;85.63
83405;SHT30;73331;48.168;20.776;2023-12-28T05:54:26;3.04;86.30
83405;SHT30;73331;48.168;20.776;2023-12-28T05:55:56;3.20;86.82
83405;SHT30;73331;48.168;20.776;2023-12-28T05:57:27;3.26;86.36
83405;SHT30;73331;48.168;20.776;2023-12-28T05:59:00;3.23;85.35
83405;SHT30;73331;48.168;20.776;2023-12-28T06:00:31;3.30;86.47
83405;SHT30;73331;48.168;20.776;2023-12-28T06:02:01;3.36;86.51
83405;SHT30;73331;48.168;20.776;2023-12-28T06:03:33;3.41;85.34
83405;SHT30;73331;48.168;20.776;2023-12-28T06:05:04;3.53;85.85
83405;SHT30;73331;48.168;20.776;2023-12-28T06:06:34;3.60;86.27
83405;SHT30;73331;48.168;20.776;2023-12-28T06:08:06;3.78;85.54
83405;SHT30;73331;48.168;20.776;2023-12-28T06:09:37;3.63;84.78
83405;SHT30;73331;48.168;20.776;2023-12-28T06:11:08;3.73;85.62
83405;SHT30;73331;48.168;20.776;2023-12-28T06:12:39;3.71;86.54
83405;SHT30;73331;48.168;20.776;2023-12-28T06:14:11;3.78;85.57
83405;SHT30;73331;48.168;20.776;2023-12-28T06:15:41;3.89;85.70
83405;SHT30;73331;48.168;20.776;2023-12-28T06:17:12;3.85;85.35
83405;SHT30;73331;48.168;20.776;2023-12-28T06:18:43;3.85;84.74
83405;SHT30;73331;48.168;20.776;2023-12-28T06:20:13;3.88;84.42
83405;SHT30;73331;48.168;20.776;2023-12-28T06:21:44;3.88;84.34
83405;SHT30;73331;48.168;20.776;2023-12-28T06:23:14;3.94;84.25
83405;SHT30;73331;48.168;20.776;2023-12-28T06:24:45;3.79;84.21
83405;SHT30;73331;48.168;20.776;2023-12-28T06:26:16;3.75;84.77
83405;SHT30;73331;48.168;20.776;2023-12-28T06:27:46;3.73;84.91
83405;SHT30;73331;48.168;20.776;2023-12-28T06:29:17;3.74;84.52
83405;SHT30;73331;48.168;20.776;2023-12-28T06:30:47;3.74;85.08
83405;SHT30;73331;48.168;20.776;2023-12-28T06:32:18;3.78;84.75
83405;SHT30;73331;48.168;20.776;2023-12-28T06:33:48;3.75;84.19
83405;SHT30;73331;48.168;20.776;2023-12-28T06:35:19;3.71;84.21
83405;SHT30;73331;48.168;20.776;2023-12-28T06:36:49;3.61;84.98
83405;SHT30;73331;48.168;20.776;2023-12-28T06:38:20;3.70;87.16
83405;SHT30;73331;48.168;20.776;2023-12-28T06:39:50;3.71;85.50
83405;SHT30;73331;48.168;20.776;2023-12-28T06:41:21;3.61;85.95
83405;SHT30;73331;48.168;20.776;2023-12-28T06:42:51;3.64;86.36
83405;SHT30;73331;48.168;20.776;2023-12-28T06:44:22;3.63;88.25
83405;SHT30;73331;48.168;20.776;2023-12-28T06:45:53;3.68;88.78
83405;SHT30;73331;48.168;20.776;2023-12-28T06:47:23;4.05;89.03
83405;SHT30;73331;48.168;20.776;2023-12-28T06:48:54;4.10;89.29
83405;SHT30;73331;48.168;20.776;2023-12-28T06:50:25;4.32;89.00
83405;SHT30;73331;48.168;20.776;2023-12-28T06:51:55;4.45;88.16
83405;SHT30;73331;48.168;20.776;2023-12-28T06:53:26;4.45;88.54
83405;SHT30;73331;48.168;20.776;2023-12-28T06:54:57;4.50;88.77
83405;SHT30;73331;48.168;20.776;2023-12-28T06:56:28;4.52;88.44
83405;SHT30;73331;48.168;20.776;2023-12-28T06:57:58;4.88;87.52
83405;SHT30;73331;48.168;20.776;2023-12-28T06:59:29;4.72;88.04
83405;SHT30;73331;48.168;20.776;2023-12-28T07:01:03;4.72;88.12
83405;SHT30;73331;48.168;20.776;2023-12-28T07:02:33;4.67;88.60
83405;SHT30;73331;48.168;20.776;2023-12-28T07:04:04;4.72;88.75
83405;SHT30;73331;48.168;20.776;2023-12-28T07:05:34;4.79;88.54
83405;SHT30;73331;48.168;20.776;2023-12-28T07:07:05;4.73;88.42
83405;SHT30;73331;48.168;20.776;2023-12-28T07:08:36;4.88;87.96
83405;SHT30;73331;48.168;20.776;2023-12-28T07:10:07;4.85;87.91
83405;SHT30;73331;48.168;20.776;2023-12-28T07:11:37;4.74;88.52
83405;SHT30;73331;48.168;20.776;2023-12-28T07:13:08;4.91;87.74
83405;SHT30;73331;48.168;20.776;2023-12-28T07:14:38;4.80;88.24
83405;SHT30;73331;48.168;20.776;2023-12-28T07:16:09;4.79;88.24
83405;SHT30;73331;48.168;20.776;2023-12-28T07:17:40;4.79;88.19
83405;SHT30;73331;48.168;20.776;2023-12-28T07:19:11;4.81;88.37
83405;SHT30;73331;48.168;20.776;2023-12-28T07:20:41;4.74;88.55
83405;SHT30;73331;48.168;20.776;2023-12-28T07:22:12;4.84;88.25
83405;SHT30;73331;48.168;20.776;2023-12-28T07:23:42;4.94;87.62
83405;SHT30;73331;48.168;20.776;2023-12-28T07:25:13;4.91;87.83
83405;SHT30;73331;48.168;20.776;2023-12-28T07:26:44;4.88;86.95
83405;SHT30;73331;48.168;20.776;2023-12-28T07:28:14;4.93;87.26
83405;SHT30;73331;48.168;20.776;2023-12-28T07:29:45;5.10;86.63
83405;SHT30;73331;48.168;20.776;2023-12-28T07:31:25;5.32;86.33
83405;SHT30;73331;48.168;20.776;2023-12-28T07:32:55;5.39;85.78
83405;SHT30;73331;48.168;20.776;2023-12-28T07:34:26;5.47;85.83
83405;SHT30;73331;48.168;20.776;2023-12-28T07:35:57;5.59;84.84
83405;SHT30;73331;48.168;20.776;2023-12-28T07:37:30;5.59;84.92
83405;SHT30;73331;48.168;20.776;2023-12-28T07:39:00;5.82;83.79
83405;SHT30;73331;48.168;20.776;2023-12-28T07:40:31;5.28;81.49
83405;SHT30;73331;48.168;20.776;2023-12-28T07:42:01;4.87;80.98
83405;SHT30;73331;48.168;20.776;2023-12-28T07:43:32;4.83;81.41
83405;SHT30;73331;48.168;20.776;2023-12-28T07:45:02;4.48;81.68
83405;SHT30;73331;48.168;20.776;2023-12-28T07:46:33;4.22;82.33
83405;SHT30;73331;48.168;20.776;2023-12-28T07:48:04;4.13;82.50
83405;SHT30;73331;48.168;20.776;2023-12-28T07:49:34;4.02;82.61
83405;SHT30;73331;48.168;20.776;2023-12-28T07:51:05;3.82;83.09
83405;SHT30;73331;48.168;20.776;2023-12-28T07:52:36;3.84;82.92
83405;SHT30;73331;48.168;20.776;2023-12-28T07:54:08;3.79;83.57
83405;SHT30;73331;48.168;20.776;2023-12-28T07:55:38;3.67;83.79
83405;SHT30;73331;48.168;20.776;2023-12-28T07:57:08;3.57;84.47
83405;SHT30;73331;48.168;20.776;2023-12-28T07:58:39;3.50;85.08
83405;SHT30;73331;48.168;20.776;2023-12-28T08:00:10;3.60;85.07
83405;SHT30;73331;48.168;20.776;2023-12-28T08:01:41;3.73;85.01
83405;SHT30;73331;48.168;20.776;2023-12-28T08:03:12;3.75;84.99
83405;SHT30;73331;48.168;20.776;2023-12-28T08:04:45;3.79;84.96
83405;SHT30;73331;48.168;20.776;2023-12-28T08:06:16;3.98;84.62
83405;SHT30;73331;48.168;20.776;2023-12-28T08:07:46;3.99;84.53
83405;SHT30;73331;48.168;20.776;2023-12-28T08:09:17;4.06;84.40
83405;SHT30;73331;48.168;20.776;2023-12-28T08:10:47;4.16;84.03
83405;SHT30;73331;48.168;20.776;2023-12-28T08:12:18;4.25;84.08
83405;SHT30;73331;48.168;20.776;2023-12-28T08:13:51;4.33;83.68
83405;SHT30;73331;48.168;20.776;2023-12-28T08:15:21;4.32;83.83
83405;SHT30;73331;48.168;20.776;2023-12-28T08:16:52;4.30;84.20
83405;SHT30;73331;48.168;20.776;2023-12-28T08:18:22;4.49;83.93
83405;SHT30;73331;48.168;20.776;2023-12-28T08:19:54;4.56;83.70
83405;SHT30;73331;48.168;20.776;2023-12-28T08:21:25;4.54;83.62
83405;SHT30;73331;48.168;20.776;2023-12-28T08:22:56;4.54;83.88
83405;SHT30;73331;48.168;20.776;2023-12-28T08:24:26;4.62;83.82
83405;SHT30;73331;48.168;20.776;2023-12-28T08:25:57;4.69;83.76
83405;SHT30;73331;48.168;20.776;2023-12-28T08:27:27;4.70;83.64
83405;SHT30;73331;48.168;20.776;2023-12-28T08:28:58;4.79;83.52
83405;SHT30;73331;48.168;20.776;2023-12-28T08:30:29;4.94;83.32
83405;SHT30;73331;48.168;20.776;2023-12-28T08:31:59;5.08;82.89
83405;SHT30;73331;48.168;20.776;2023-12-28T08:33:30;5.11;82.68
83405;SHT30;73331;48.168;20.776;2023-12-28T08:35:01;5.10;82.79
83405;SHT30;73331;48.168;20.776;2023-12-28T08:36:32;5.15;82.82
83405;SHT30;73331;48.168;20.776;2023-12-28T08:38:03;5.75;80.93
83405;SHT30;73331;48.168;20.776;2023-12-28T08:39:34;6.07;79.60
83405;SHT30;73331;48.168;20.776;2023-12-28T08:41:04;5.98;79.97
83405;SHT30;73331;48.168;20.776;2023-12-28T08:42:39;6.24;79.26
83405;SHT30;73331;48.168;20.776;2023-12-28T08:44:10;6.57;77.24
83405;SHT30;73331;48.168;20.776;2023-12-28T08:45:40;6.74;76.40
83405;SHT30;73331;48.168;20.776;2023-12-28T08:47:11;6.84;76.06
83405;SHT30;73331;48.168;20.776;2023-12-28T08:48:42;6.88;76.29
83405;SHT30;73331;48.168;20.776;2023-12-28T08:50:12;6.91;76.04
83405;SHT30;73331;48.168;20.776;2023-12-28T08:51:43;6.83;77.00
83405;SHT30;73331;48.168;20.776;2023-12-28T08:53:14;6.61;78.28
83405;SHT30;73331;48.168;20.776;2023-12-28T08:54:44;6.65;78.14
83405;SHT30;73331;48.168;20.776;2023-12-28T08:56:22;6.44;79.15
83405;SHT30;73331;48.168;20.776;2023-12-28T08:57:53;6.34;79.78
83405;SHT30;73331;48.168;20.776;2023-12-28T08:59:23;6.33;80.20
83405;SHT30;73331;48.168;20.776;2023-12-28T09:00:54;6.36;79.98
83405;SHT30;73331;48.168;20.776;2023-12-28T09:02:27;6.40;79.59
83405;SHT30;73331;48.168;20.776;2023-12-28T09:03:58;6.36;80.10
83405;SHT30;73331;48.168;20.776;2023-12-28T09:05:29;6.61;79.29
83405;SHT30;73331;48.168;20.776;2023-12-28T09:07:00;6.89;78.02
83405;SHT30;73331;48.168;20.776;2023-12-28T09:08:31;7.08;77.13
83405;SHT30;73331;48.168;20.776;2023-12-28T09:10:02;7.36;76.26
83405;SHT30;73331;48.168;20.776;2023-12-28T09:11:34;7.28;76.40
83405;SHT30;73331;48.168;20.776;2023-12-28T09:13:04;7.40;76.11
83405;SHT30;73331;48.168;20.776;2023-12-28T09:14:36;7.62;75.43
83405;SHT30;73331;48.168;20.776;2023-12-28T09:16:07;7.73;74.85
83405;SHT30;73331;48.168;20.776;2023-12-28T09:17:38;7.84;74.66
83405;SHT30;73331;48.168;20.776;2023-12-28T09:19:09;7.81;75.07
83405;SHT30;73331;48.168;20.776;2023-12-28T09:20:39;7.79;74.99
83405;SHT30;73331;48.168;20.776;2023-12-28T09:22:10;7.80;75.05
83405;SHT30;73331;48.168;20.776;2023-12-28T09:23:41;7.81;74.88
83405;SHT30;73331;48.168;20.776;2023-12-28T09:25:13;7.79;75.31
83405;SHT30;73331;48.168;20.776;2023-12-28T09:26:44;7.80;75.28
83405;SHT30;73331;48.168;20.776;2023-12-28T09:28:14;7.80;74.89
83405;SHT30;73331;48.168;20.776;2023-12-28T09:29:45;7.71;75.30
83405;SHT30;73331;48.168;20.776;2023-12-28T09:31:16;7.74;75.42
83405;SHT30;73331;48.168;20.776;2023-12-28T09:32:46;7.81;75.59
83405;SHT30;73331;48.168;20.776;2023-12-28T09:34:17;7.89;75.32
83405;SHT30;73331;48.168;20.776;2023-12-28T09:35:47;7.94;74.92